sensor_id;sensor_type;location;lat;lon;timestamp;pressure;altitude;pressure_sealevel;temperature;humidity
10732;BME280;5417;42.686;23.244;2023-06-24T00:01:46;94299.09;;;23.44;75.30
10732;BME280;5417;42.686;23.244;2023-06-24T00:04:05;94295.19;;;23.40;75.65
10732;BME280;5417;42.686;23.244;2023-06-24T00:06:34;94299.50;;;23.35;76.09
10732;BME280;5417;42.686;23.244;2023-06-24T00:09:02;94288.03;;;23.34;75.95
10732;BME280;5417;42.686;23.244;2023-06-24T00:12:21;94297.03;;;23.33;76.51
10732;BME280;5417;42.686;23.244;2023-06-24T00:18:31;94292.13;;;23.23;76.47
10732;BME280;5417;42.686;23.244;2023-06-24T00:21:02;94270.69;;;23.12;77.17
10732;BME280;5417;42.686;23.244;2023-06-24T00:27:00;94274.38;;;23.11;77.43
10732;BME280;5417;42.686;23.244;2023-06-24T00:30:07;94290.91;;;23.13;76.99
10732;BME280;5417;42.686;23.244;2023-06-24T00:32:34;94297.47;;;23.10;77.67
10732;BME280;5417;42.686;23.244;2023-06-24T00:35:01;94293.38;;;23.08;77.47
10732;BME280;5417;42.686;23.244;2023-06-24T00:37:46;94298.88;;;23.06;77.36
10732;BME280;5417;42.686;23.244;2023-06-24T00:40:15;94304.41;;;23.05;76.74
10732;BME280;5417;42.686;23.244;2023-06-24T00:48:32;94278.06;;;22.96;76.64
10732;BME280;5417;42.686;23.244;2023-06-24T00:50:59;94267.00;;;22.86;76.77
10732;BME280;5417;42.686;23.244;2023-06-24T00:53:43;94274.59;;;22.89;76.56
10732;BME280;5417;42.686;23.244;2023-06-24T00:56:09;94264.13;;;22.81;76.93
10732;BME280;5417;42.686;23.244;2023-06-24T00:58:41;94274.91;;;22.80;76.77
10732;BME280;5417;42.686;23.244;2023-06-24T01:01:09;94283.31;;;22.83;76.81
10732;BME280;5417;42.686;23.244;2023-06-24T01:04:33;94275.78;;;22.80;76.72
10732;BME280;5417;42.686;23.244;2023-06-24T01:07:24;94270.03;;;22.77;76.47
10732;BME280;5417;42.686;23.244;2023-06-24T01:09:52;94275.53;;;22.75;76.99
10732;BME280;5417;42.686;23.244;2023-06-24T01:13:17;94272.06;;;22.75;76.42
10732;BME280;5417;42.686;23.244;2023-06-24T01:19:22;94251.44;;;22.57;76.86
10732;BME280;5417;42.686;23.244;2023-06-24T01:22:06;94256.34;;;22.66;76.87
10732;BME280;5417;42.686;23.244;2023-06-24T01:24:54;94272.88;;;22.68;77.30
10732;BME280;5417;42.686;23.244;2023-06-24T01:30:41;94272.25;;;22.60;77.00
10732;BME280;5417;42.686;23.244;2023-06-24T01:33:35;94282.66;;;22.61;76.62
10732;BME280;5417;42.686;23.244;2023-06-24T01:36:11;94286.72;;;22.57;76.23
10732;BME280;5417;42.686;23.244;2023-06-24T01:44:57;94301.81;;;22.50;77.03
10732;BME280;5417;42.686;23.244;2023-06-24T01:50:45;94302.63;;;22.51;76.24
10732;BME280;5417;42.686;23.244;2023-06-24T01:53:16;94308.13;;;22.49;76.01
10732;BME280;5417;42.686;23.244;2023-06-24T01:55:46;94303.66;;;22.50;75.78
10732;BME280;5417;42.686;23.244;2023-06-24T01:59:07;94302.84;;;22.49;75.58
10732;BME280;5417;42.686;23.244;2023-06-24T02:01:19;94310.78;;;22.49;75.40
10732;BME280;5417;42.686;23.244;2023-06-24T02:03:47;94317.13;;;22.48;75.20
10732;BME280;5417;42.686;23.244;2023-06-24T02:06:17;94319.97;;;22.47;75.29
10732;BME280;5417;42.686;23.244;2023-06-24T02:08:48;94317.91;;;22.42;74.53
10732;BME280;5417;42.686;23.244;2023-06-24T02:11:15;94319.16;;;22.46;75.16
10732;BME280;5417;42.686;23.244;2023-06-24T02:15:04;94319.16;;;22.46;75.21
10732;BME280;5417;42.686;23.244;2023-06-24T02:16:46;94312.63;;;22.42;75.47
10732;BME280;5417;42.686;23.244;2023-06-24T02:19:37;94321.59;;;22.41;75.80
10732;BME280;5417;42.686;23.244;2023-06-24T02:22:07;94327.09;;;22.40;75.70
10732;BME280;5417;42.686;23.244;2023-06-24T02:24:36;94315.38;;;22.27;75.81
10732;BME280;5417;42.686;23.244;2023-06-24T02:27:12;94319.44;;;22.23;75.33
10732;BME280;5417;42.686;23.244;2023-06-24T02:30:48;94350.13;;;22.39;76.11
10732;BME280;5417;42.686;23.244;2023-06-24T02:33:10;94355.66;;;22.38;76.16
10732;BME280;5417;42.686;23.244;2023-06-24T02:35:37;94353.81;;;22.38;75.93
10732;BME280;5417;42.686;23.244;2023-06-24T02:38:23;94357.69;;;22.42;75.48
10732;BME280;5417;42.686;23.244;2023-06-24T02:40:53;94352.41;;;22.42;75.42
10732;BME280;5417;42.686;23.244;2023-06-24T02:43:50;94356.69;;;22.43;75.21
10732;BME280;5417;42.686;23.244;2023-06-24T02:46:24;94361.38;;;22.41;75.68
10732;BME280;5417;42.686;23.244;2023-06-24T02:49:29;94352.13;;;22.37;75.98
10732;BME280;5417;42.686;23.244;2023-06-24T02:58:50;94368.22;;;22.29;76.66
10732;BME280;5417;42.686;23.244;2023-06-24T03:02:05;94368.66;;;22.32;76.44
10732;BME280;5417;42.686;23.244;2023-06-24T03:04:22;94350.06;;;22.26;76.77
10732;BME280;5417;42.686;23.244;2023-06-24T03:07:06;94352.13;;;22.30;76.89
10732;BME280;5417;42.686;23.244;2023-06-24T03:10:17;94355.59;;;22.31;76.88
10732;BME280;5417;42.686;23.244;2023-06-24T03:15:55;94354.34;;;22.27;77.21
10732;BME280;5417;42.686;23.244;2023-06-24T03:18:22;94354.75;;;22.24;77.11
10732;BME280;5417;42.686;23.244;2023-06-24T03:21:32;94366.63;;;22.34;77.41
10732;BME280;5417;42.686;23.244;2023-06-24T03:23:53;94356.63;;;22.36;76.88
10732;BME280;5417;42.686;23.244;2023-06-24T03:27:48;94377.09;;;22.43;77.04
10732;BME280;5417;42.686;23.244;2023-06-24T03:29:58;94382.16;;;22.38;77.28
10732;BME280;5417;42.686;23.244;2023-06-24T03:38:41;94391.41;;;22.55;76.06
10732;BME280;5417;42.686;23.244;2023-06-24T03:41:13;94390.41;;;22.62;75.33
10732;BME280;5417;42.686;23.244;2023-06-24T03:43:43;94399.63;;;22.66;75.32
10732;BME280;5417;42.686;23.244;2023-06-24T03:46:12;94408.63;;;22.72;74.34
10732;BME280;5417;42.686;23.244;2023-06-24T03:52:39;94405.81;;;22.87;74.89
10732;BME280;5417;42.686;23.244;2023-06-24T03:55:28;94412.41;;;22.91;75.12
10732;BME280;5417;42.686;23.244;2023-06-24T03:57:55;94402.19;;;22.94;74.43
10732;BME280;5417;42.686;23.244;2023-06-24T04:00:24;94376.63;;;22.87;73.87
10732;BME280;5417;42.686;23.244;2023-06-24T04:02:51;94392.00;;;23.05;73.70
10732;BME280;5417;42.686;23.244;2023-06-24T04:11:51;94403.50;;;23.32;73.29
10732;BME280;5417;42.686;23.244;2023-06-24T04:14:21;94405.13;;;23.39;73.22
10732;BME280;5417;42.686;23.244;2023-06-24T04:17:47;94390.84;;;23.47;72.44
10732;BME280;5417;42.686;23.244;2023-06-24T04:19:59;94379.41;;;23.53;71.15
10732;BME280;5417;42.686;23.244;2023-06-24T04:22:34;94388.84;;;23.62;70.62
10732;BME280;5417;42.686;23.244;2023-06-24T04:25:01;94368.19;;;23.64;70.52
10732;BME280;5417;42.686;23.244;2023-06-24T04:27:31;94383.72;;;23.80;69.53
10732;BME280;5417;42.686;23.244;2023-06-24T04:29:58;94375.50;;;23.88;69.26
10732;BME280;5417;42.686;23.244;2023-06-24T04:32:29;94372.06;;;23.95;68.98
10732;BME280;5417;42.686;23.244;2023-06-24T04:34:57;94375.94;;;23.99;68.64
10732;BME280;5417;42.686;23.244;2023-06-24T04:37:51;94389.38;;;24.17;67.81
10732;BME280;5417;42.686;23.244;2023-06-24T04:40:18;94380.38;;;24.18;67.88
10732;BME280;5417;42.686;23.244;2023-06-24T04:42:49;94389.56;;;24.35;67.03
10732;BME280;5417;42.686;23.244;2023-06-24T04:45:18;94376.47;;;24.47;66.34
10732;BME280;5417;42.686;23.244;2023-06-24T04:47:52;94390.28;;;25.13;66.25
10732;BME280;5417;42.686;23.244;2023-06-24T04:50:22;94393.22;;;25.93;62.80
10732;BME280;5417;42.686;23.244;2023-06-24T04:53:13;94405.91;;;26.78;59.46
10732;BME280;5417;42.686;23.244;2023-06-24T04:59:16;94385.75;;;27.83;55.98
10732;BME280;5417;42.686;23.244;2023-06-24T05:01:45;94390.44;;;28.35;54.46
10732;BME280;5417;42.686;23.244;2023-06-24T05:04:12;94376.44;;;28.56;53.34
10732;BME280;5417;42.686;23.244;2023-06-24T05:06:41;94392.38;;;28.86;52.75
10732;BME280;5417;42.686;23.244;2023-06-24T05:18:49;94392.00;;;29.23;51.58
10732;BME280;5417;42.686;23.244;2023-06-24T05:21:22;94381.47;;;29.33;51.94
10732;BME280;5417;42.686;23.244;2023-06-24T05:24:14;94372.41;;;29.50;51.39
10732;BME280;5417;42.686;23.244;2023-06-24T05:26:48;94371.72;;;29.72;50.19
10732;BME280;5417;42.686;23.244;2023-06-24T05:29:15;94373.41;;;29.78;49.72
10732;BME280;5417;42.686;23.244;2023-06-24T05:31:45;94376.19;;;29.83;49.97
10732;BME280;5417;42.686;23.244;2023-06-24T05:34:15;94367.72;;;29.74;49.80
10732;BME280;5417;42.686;23.244;2023-06-24T05:37:28;94374.31;;;29.67;49.81
10732;BME280;5417;42.686;23.244;2023-06-24T05:40:29;94379.00;;;29.60;50.47
10732;BME280;5417;42.686;23.244;2023-06-24T05:44:25;94379.69;;;29.38;51.64
10732;BME280;5417;42.686;23.244;2023-06-24T05:46:50;94377.41;;;29.30;51.94
10732;BME280;5417;42.686;23.244;2023-06-24T05:49:18;94376.97;;;29.50;51.76
10732;BME280;5417;42.686;23.244;2023-06-24T05:51:45;94374.31;;;29.67;50.03
10732;BME280;5417;42.686;23.244;2023-06-24T06:20:28;94359.19;;;30.28;50.13
10732;BME280;5417;42.686;23.244;2023-06-24T06:22:55;94355.81;;;30.37;47.93
10732;BME280;5417;42.686;23.244;2023-06-24T06:25:28;94358.56;;;30.42;47.63
10732;BME280;5417;42.686;23.244;2023-06-24T06:28:02;94367.63;;;30.58;47.93
10732;BME280;5417;42.686;23.244;2023-06-24T06:30:42;94375.19;;;30.78;47.35
10732;BME280;5417;42.686;23.244;2023-06-24T06:33:09;94372.31;;;30.85;47.73
10732;BME280;5417;42.686;23.244;2023-06-24T06:36:22;94377.00;;;30.94;46.87
10732;BME280;5417;42.686;23.244;2023-06-24T06:39:07;94377.75;;;30.90;47.48
10732;BME280;5417;42.686;23.244;2023-06-24T06:42:36;94384.34;;;31.04;47.15
10732;BME280;5417;42.686;23.244;2023-06-24T06:45:02;94379.16;;;31.19;47.53
10732;BME280;5417;42.686;23.244;2023-06-24T06:47:30;94379.84;;;31.09;47.63
10732;BME280;5417;42.686;23.244;2023-06-24T06:57:14;94373.28;;;30.18;50.69
10732;BME280;5417;42.686;23.244;2023-06-24T06:59:41;94376.16;;;30.33;51.79
10732;BME280;5417;42.686;23.244;2023-06-24T07:02:07;94371.69;;;30.39;51.13
10732;BME280;5417;42.686;23.244;2023-06-24T07:04:58;94369.69;;;29.79;52.93
10732;BME280;5417;42.686;23.244;2023-06-24T07:08:25;94373.97;;;29.18;53.77
10732;BME280;5417;42.686;23.244;2023-06-24T07:11:28;94384.03;;;28.99;55.23
10732;BME280;5417;42.686;23.244;2023-06-24T07:13:51;94383.13;;;28.94;54.63
10732;BME280;5417;42.686;23.244;2023-06-24T07:16:27;94375.84;;;29.06;55.01
10732;BME280;5417;42.686;23.244;2023-06-24T07:19:53;94377.13;;;29.60;53.52
10732;BME280;5417;42.686;23.244;2023-06-24T07:22:35;94377.38;;;29.59;52.94
10732;BME280;5417;42.686;23.244;2023-06-24T07:25:53;94374.31;;;29.67;53.85
10732;BME280;5417;42.686;23.244;2023-06-24T07:31:37;94373.91;;;30.25;52.43
10732;BME280;5417;42.686;23.244;2023-06-24T07:34:25;94369.88;;;30.44;49.29
10732;BME280;5417;42.686;23.244;2023-06-24T07:36:52;94356.56;;;30.55;48.63
10732;BME280;5417;42.686;23.244;2023-06-24T07:39:18;94373.88;;;30.81;50.12
10732;BME280;5417;42.686;23.244;2023-06-24T07:41:45;94370.91;;;31.04;48.07
10732;BME280;5417;42.686;23.244;2023-06-24T07:44:12;94365.47;;;31.21;47.17
10732;BME280;5417;42.686;23.244;2023-06-24T07:46:41;94373.00;;;31.46;46.82
10732;BME280;5417;42.686;23.244;2023-06-24T07:50:02;94380.91;;;31.30;44.74
10732;BME280;5417;42.686;23.244;2023-06-24T07:52:21;94368.03;;;31.32;46.07
10732;BME280;5417;42.686;23.244;2023-06-24T07:55:02;94374.75;;;31.62;45.08
10732;BME280;5417;42.686;23.244;2023-06-24T08:01:17;94382.47;;;32.12;44.81
10732;BME280;5417;42.686;23.244;2023-06-24T08:03:46;94385.06;;;32.29;45.47
10732;BME280;5417;42.686;23.244;2023-06-24T08:08:30;94371.34;;;32.36;44.34
10732;BME280;5417;42.686;23.244;2023-06-24T08:09:28;94373.38;;;32.23;42.46
10732;BME280;5417;42.686;23.244;2023-06-24T08:11:54;94368.75;;;32.19;42.37
10732;BME280;5417;42.686;23.244;2023-06-24T08:14:21;94375.69;;;32.42;43.35
10732;BME280;5417;42.686;23.244;2023-06-24T08:16:48;94370.66;;;32.55;42.25
10732;BME280;5417;42.686;23.244;2023-06-24T08:19:16;94374.44;;;32.59;42.00
10732;BME280;5417;42.686;23.244;2023-06-24T08:24:58;94369.44;;;32.31;43.49
10732;BME280;5417;42.686;23.244;2023-06-24T08:27:46;94363.19;;;32.25;43.57
10732;BME280;5417;42.686;23.244;2023-06-24T08:30:13;94361.38;;;32.36;45.33
10732;BME280;5417;42.686;23.244;2023-06-24T08:33:27;94363.50;;;32.29;42.92
10732;BME280;5417;42.686;23.244;2023-06-24T08:35:54;94362.78;;;32.44;42.88
10732;BME280;5417;42.686;23.244;2023-06-24T08:38:22;94363.75;;;32.27;43.11
10732;BME280;5417;42.686;23.244;2023-06-24T08:41:12;94363.06;;;32.10;44.26
10732;BME280;5417;42.686;23.244;2023-06-24T08:43:39;94341.47;;;32.05;43.73
10732;BME280;5417;42.686;23.244;2023-06-24T08:46:35;94347.72;;;32.11;43.26
10732;BME280;5417;42.686;23.244;2023-06-24T08:49:30;94352.19;;;32.27;44.40
10732;BME280;5417;42.686;23.244;2023-06-24T08:52:03;94346.94;;;32.15;43.22
10732;BME280;5417;42.686;23.244;2023-06-24T08:54:34;94349.38;;;31.80;43.84
10732;BME280;5417;42.686;23.244;2023-06-24T08:57:02;94345.19;;;31.94;44.35
10732;BME280;5417;42.686;23.244;2023-06-24T08:59:30;94347.50;;;32.22;43.95
10732;BME280;5417;42.686;23.244;2023-06-24T09:01:57;94351.72;;;32.45;44.76
10732;BME280;5417;42.686;23.244;2023-06-24T09:04:24;94345.09;;;32.68;43.21
10732;BME280;5417;42.686;23.244;2023-06-24T09:06:56;94339.81;;;32.78;44.05
10732;BME280;5417;42.686;23.244;2023-06-24T09:09:24;94333.78;;;32.71;42.79
10732;BME280;5417;42.686;23.244;2023-06-24T09:11:54;94335.38;;;32.67;42.46
10732;BME280;5417;42.686;23.244;2023-06-24T09:14:21;94334.84;;;32.65;43.26
10732;BME280;5417;42.686;23.244;2023-06-24T09:16:53;94331.31;;;32.59;42.83
10732;BME280;5417;42.686;23.244;2023-06-24T09:20:09;94338.06;;;32.62;42.68
10732;BME280;5417;42.686;23.244;2023-06-24T09:22:14;94338.03;;;32.52;43.03
10732;BME280;5417;42.686;23.244;2023-06-24T09:24:45;94342.06;;;32.49;44.29
10732;BME280;5417;42.686;23.244;2023-06-24T09:27:15;94344.97;;;32.38;43.33
10732;BME280;5417;42.686;23.244;2023-06-24T09:29:46;94337.75;;;32.53;43.90
10732;BME280;5417;42.686;23.244;2023-06-24T09:32:14;94329.72;;;32.63;43.83
10732;BME280;5417;42.686;23.244;2023-06-24T09:34:41;94339.41;;;32.59;43.51
10732;BME280;5417;42.686;23.244;2023-06-24T09:37:07;94336.97;;;32.58;42.86
10732;BME280;5417;42.686;23.244;2023-06-24T09:39:50;94334.56;;;32.67;43.31
10732;BME280;5417;42.686;23.244;2023-06-24T09:42:20;94338.19;;;32.82;42.08
10732;BME280;5417;42.686;23.244;2023-06-24T09:44:52;94334.03;;;32.70;42.87
10732;BME280;5417;42.686;23.244;2023-06-24T09:47:19;94332.91;;;32.55;42.56
10732;BME280;5417;42.686;23.244;2023-06-24T09:49:50;94331.44;;;32.80;42.97
10732;BME280;5417;42.686;23.244;2023-06-24T09:52:18;94323.25;;;32.70;41.76
10732;BME280;5417;42.686;23.244;2023-06-24T09:54:47;94336.19;;;32.62;42.10
10732;BME280;5417;42.686;23.244;2023-06-24T09:57:22;94326.22;;;32.68;42.46
10732;BME280;5417;42.686;23.244;2023-06-24T09:59:52;94333.88;;;32.81;42.36
10732;BME280;5417;42.686;23.244;2023-06-24T10:02:20;94324.56;;;32.57;42.38
10732;BME280;5417;42.686;23.244;2023-06-24T10:04:48;94319.44;;;32.55;42.81
10732;BME280;5417;42.686;23.244;2023-06-24T10:07:16;94316.50;;;32.62;42.10
10732;BME280;5417;42.686;23.244;2023-06-24T10:09:54;94310.75;;;32.38;42.19
10732;BME280;5417;42.686;23.244;2023-06-24T10:12:23;94313.41;;;32.33;41.25
10732;BME280;5417;42.686;23.244;2023-06-24T10:14:52;94295.50;;;32.22;42.23
10732;BME280;5417;42.686;23.244;2023-06-24T10:17:19;94281.75;;;32.13;42.76
10732;BME280;5417;42.686;23.244;2023-06-24T10:19:52;94307.69;;;32.24;42.14
10732;BME280;5417;42.686;23.244;2023-06-24T10:22:21;94297.94;;;32.18;42.65
10732;BME280;5417;42.686;23.244;2023-06-24T10:24:49;94281.19;;;32.11;42.36
10732;BME280;5417;42.686;23.244;2023-06-24T10:27:18;94280.63;;;32.09;42.52
10732;BME280;5417;42.686;23.244;2023-06-24T10:29:49;94278.28;;;32.23;42.28
10732;BME280;5417;42.686;23.244;2023-06-24T10:32:17;94278.72;;;32.05;42.28
10732;BME280;5417;42.686;23.244;2023-06-24T10:34:46;94271.66;;;31.93;42.86
10732;BME280;5417;42.686;23.244;2023-06-24T10:37:15;94279.72;;;31.88;42.75
10732;BME280;5417;42.686;23.244;2023-06-24T10:39:51;94274.84;;;31.85;42.63
10732;BME280;5417;42.686;23.244;2023-06-24T10:42:33;94250.50;;;31.70;43.44
10732;BME280;5417;42.686;23.244;2023-06-24T10:45:17;94239.78;;;31.75;43.13
10732;BME280;5417;42.686;23.244;2023-06-24T10:47:45;94237.56;;;32.09;45.01
10732;BME280;5417;42.686;23.244;2023-06-24T10:50:13;94237.59;;;32.19;42.81
10732;BME280;5417;42.686;23.244;2023-06-24T10:52:41;94238.94;;;32.17;43.14
10732;BME280;5417;42.686;23.244;2023-06-24T10:55:09;94237.81;;;32.08;42.56
10732;BME280;5417;42.686;23.244;2023-06-24T10:57:36;94238.66;;;32.18;44.89
10732;BME280;5417;42.686;23.244;2023-06-24T11:00:05;94227.44;;;32.26;43.96
10732;BME280;5417;42.686;23.244;2023-06-24T11:02:32;94227.44;;;32.26;42.58
10732;BME280;5417;42.686;23.244;2023-06-24T11:05:01;94233.00;;;32.20;43.17
10732;BME280;5417;42.686;23.244;2023-06-24T11:07:30;94237.00;;;32.07;42.74
10732;BME280;5417;42.686;23.244;2023-06-24T11:10:02;94238.63;;;32.08;42.71
10732;BME280;5417;42.686;23.244;2023-06-24T11:12:30;94236.72;;;32.04;43.24
10732;BME280;5417;42.686;23.244;2023-06-24T11:15:00;94229.72;;;32.03;45.58
10732;BME280;5417;42.686;23.244;2023-06-24T11:17:28;94228.41;;;32.10;42.91
10732;BME280;5417;42.686;23.244;2023-06-24T11:19:57;94233.78;;;32.10;41.91
10732;BME280;5417;42.686;23.244;2023-06-24T11:22:25;94238.88;;;32.07;40.28
10732;BME280;5417;42.686;23.244;2023-06-24T11:24:53;94226.97;;;31.92;40.46
10732;BME280;5417;42.686;23.244;2023-06-24T11:27:24;94217.03;;;31.98;41.17
10732;BME280;5417;42.686;23.244;2023-06-24T11:29:52;94214.13;;;32.10;42.59
10732;BME280;5417;42.686;23.244;2023-06-24T11:32:19;94226.25;;;32.12;41.41
10732;BME280;5417;42.686;23.244;2023-06-24T11:34:48;94215.97;;;31.99;38.30
10732;BME280;5417;42.686;23.244;2023-06-24T11:37:17;94219.78;;;32.08;38.92
10732;BME280;5417;42.686;23.244;2023-06-24T11:39:55;94210.09;;;32.12;39.13
10732;BME280;5417;42.686;23.244;2023-06-24T11:42:28;94219.03;;;32.23;39.45
10732;BME280;5417;42.686;23.244;2023-06-24T11:44:59;94223.09;;;32.25;38.64
10732;BME280;5417;42.686;23.244;2023-06-24T11:47:27;94225.69;;;32.05;38.26
10732;BME280;5417;42.686;23.244;2023-06-24T11:49:59;94211.44;;;32.10;38.04
10732;BME280;5417;42.686;23.244;2023-06-24T11:52:32;94209.56;;;32.15;38.30
10732;BME280;5417;42.686;23.244;2023-06-24T11:55:00;94203.66;;;32.23;40.63
10732;BME280;5417;42.686;23.244;2023-06-24T11:57:49;94199.03;;;32.09;39.71
10732;BME280;5417;42.686;23.244;2023-06-24T12:00:17;94183.09;;;31.92;38.84
10732;BME280;5417;42.686;23.244;2023-06-24T12:02:45;94186.47;;;31.72;39.53
10732;BME280;5417;42.686;23.244;2023-06-24T12:05:22;94171.31;;;31.61;40.75
10732;BME280;5417;42.686;23.244;2023-06-24T12:07:54;94163.22;;;31.61;40.59
10732;BME280;5417;42.686;23.244;2023-06-24T12:10:21;94160.78;;;31.59;40.72
10732;BME280;5417;42.686;23.244;2023-06-24T12:12:48;94155.59;;;31.43;39.94
10732;BME280;5417;42.686;23.244;2023-06-24T12:15:15;94143.72;;;31.38;38.88
10732;BME280;5417;42.686;23.244;2023-06-24T12:17:42;94166.31;;;31.37;39.53
10732;BME280;5417;42.686;23.244;2023-06-24T12:20:09;94164.63;;;31.26;40.52
10732;BME280;5417;42.686;23.244;2023-06-24T12:22:38;94162.75;;;31.27;41.66
10732;BME280;5417;42.686;23.244;2023-06-24T12:25:05;94167.78;;;31.18;41.22
10732;BME280;5417;42.686;23.244;2023-06-24T12:27:32;94161.59;;;31.18;40.62
10732;BME280;5417;42.686;23.244;2023-06-24T12:30:00;94164.91;;;31.25;40.14
10732;BME280;5417;42.686;23.244;2023-06-24T12:32:27;94160.78;;;31.17;39.70
10732;BME280;5417;42.686;23.244;2023-06-24T12:34:54;94158.19;;;31.27;40.44
10732;BME280;5417;42.686;23.244;2023-06-24T12:37:22;94154.19;;;31.35;40.29
10732;BME280;5417;42.686;23.244;2023-06-24T12:39:50;94174.59;;;31.26;42.02
10732;BME280;5417;42.686;23.244;2023-06-24T12:42:17;94187.16;;;31.20;41.28
10732;BME280;5417;42.686;23.244;2023-06-24T12:44:44;94198.88;;;31.09;42.81
10732;BME280;5417;42.686;23.244;2023-06-24T12:47:11;94220.19;;;31.16;40.96
10732;BME280;5417;42.686;23.244;2023-06-24T12:49:38;94213.41;;;31.13;41.23
10732;BME280;5417;42.686;23.244;2023-06-24T12:52:05;94224.69;;;31.10;43.70
10732;BME280;5417;42.686;23.244;2023-06-24T12:54:32;94229.19;;;30.99;42.79
10732;BME280;5417;42.686;23.244;2023-06-24T12:57:01;94234.25;;;30.96;43.89
10732;BME280;5417;42.686;23.244;2023-06-24T12:59:28;94231.00;;;30.94;43.07
10732;BME280;5417;42.686;23.244;2023-06-24T13:01:54;94219.41;;;30.88;41.33
10732;BME280;5417;42.686;23.244;2023-06-24T13:04:21;94218.63;;;30.93;42.38
10732;BME280;5417;42.686;23.244;2023-06-24T13:06:50;94209.00;;;30.97;45.75
10732;BME280;5417;42.686;23.244;2023-06-24T13:09:18;94200.03;;;30.86;47.67
10732;BME280;5417;42.686;23.244;2023-06-24T13:11:45;94208.00;;;30.76;49.40
10732;BME280;5417;42.686;23.244;2023-06-24T13:14:13;94196.47;;;30.32;49.87
10732;BME280;5417;42.686;23.244;2023-06-24T13:16:40;94205.00;;;29.46;55.17
10732;BME280;5417;42.686;23.244;2023-06-24T13:19:07;94190.28;;;28.99;56.81
10732;BME280;5417;42.686;23.244;2023-06-24T13:21:34;94186.16;;;28.34;58.31
10732;BME280;5417;42.686;23.244;2023-06-24T13:24:01;94204.50;;;28.02;58.99
10732;BME280;5417;42.686;23.244;2023-06-24T13:26:28;94173.59;;;27.83;60.25
10732;BME280;5417;42.686;23.244;2023-06-24T13:28:55;94208.28;;;27.66;60.66
10732;BME280;5417;42.686;23.244;2023-06-24T13:31:25;94221.53;;;27.38;58.96
10732;BME280;5417;42.686;23.244;2023-06-24T13:33:52;94243.31;;;26.99;59.20
10732;BME280;5417;42.686;23.244;2023-06-24T13:36:30;94266.72;;;26.97;57.88
10732;BME280;5417;42.686;23.244;2023-06-24T13:38:58;94296.75;;;26.99;58.33
10732;BME280;5417;42.686;23.244;2023-06-24T13:41:25;94320.25;;;27.09;58.70
10732;BME280;5417;42.686;23.244;2023-06-24T13:43:57;94344.22;;;27.16;55.59
10732;BME280;5417;42.686;23.244;2023-06-24T13:46:25;94368.03;;;27.17;51.84
10732;BME280;5417;42.686;23.244;2023-06-24T13:48:53;94354.63;;;27.06;50.63
10732;BME280;5417;42.686;23.244;2023-06-24T13:51:24;94362.91;;;27.16;51.24
10732;BME280;5417;42.686;23.244;2023-06-24T13:53:52;94346.78;;;27.22;51.21
10732;BME280;5417;42.686;23.244;2023-06-24T13:56:21;94351.44;;;27.27;52.38
10732;BME280;5417;42.686;23.244;2023-06-24T13:58:49;94338.88;;;27.27;52.93
10732;BME280;5417;42.686;23.244;2023-06-24T14:01:17;94331.91;;;27.26;52.74
10732;BME280;5417;42.686;23.244;2023-06-24T14:03:45;94339.25;;;27.31;52.30
10732;BME280;5417;42.686;23.244;2023-06-24T14:06:14;94326.47;;;27.33;51.10
10732;BME280;5417;42.686;23.244;2023-06-24T14:08:51;94318.56;;;27.38;49.78
10732;BME280;5417;42.686;23.244;2023-06-24T14:11:18;94305.53;;;27.30;50.57
10732;BME280;5417;42.686;23.244;2023-06-24T14:13:45;94301.03;;;27.42;50.46
10732;BME280;5417;42.686;23.244;2023-06-24T14:16:12;94302.63;;;27.31;51.18
10732;BME280;5417;42.686;23.244;2023-06-24T14:18:39;94264.28;;;27.14;52.31
10732;BME280;5417;42.686;23.244;2023-06-24T14:21:08;94255.56;;;27.19;52.99
10732;BME280;5417;42.686;23.244;2023-06-24T14:23:35;94238.81;;;27.12;52.23
10732;BME280;5417;42.686;23.244;2023-06-24T14:26:02;94233.94;;;27.20;52.00
10732;BME280;5417;42.686;23.244;2023-06-24T14:28:41;94218.03;;;27.25;52.85
10732;BME280;5417;42.686;23.244;2023-06-24T14:31:08;94201.75;;;27.27;51.93
10732;BME280;5417;42.686;23.244;2023-06-24T14:33:34;94213.38;;;27.32;51.39
10732;BME280;5417;42.686;23.244;2023-06-24T14:36:02;94204.78;;;27.30;51.78
10732;BME280;5417;42.686;23.244;2023-06-24T14:38:30;94200.38;;;27.36;50.42
10732;BME280;5417;42.686;23.244;2023-06-24T14:40:57;94202.81;;;27.26;50.64
10732;BME280;5417;42.686;23.244;2023-06-24T14:43:24;94203.38;;;27.28;50.42
10732;BME280;5417;42.686;23.244;2023-06-24T14:45:51;94196.75;;;27.30;49.77
10732;BME280;5417;42.686;23.244;2023-06-24T14:48:18;94200.84;;;27.33;50.83
10732;BME280;5417;42.686;23.244;2023-06-24T14:50:45;94217.31;;;27.53;50.62
10732;BME280;5417;42.686;23.244;2023-06-24T14:53:13;94221.56;;;27.61;50.90
10732;BME280;5417;42.686;23.244;2023-06-24T14:55:41;94230.16;;;27.63;50.90
10732;BME280;5417;42.686;23.244;2023-06-24T14:58:08;94242.25;;;27.65;52.14
10732;BME280;5417;42.686;23.244;2023-06-24T15:00:35;94244.19;;;27.47;53.42
10732;BME280;5417;42.686;23.244;2023-06-24T15:06:24;94306.81;;;27.39;52.01
10732;BME280;5417;42.686;23.244;2023-06-24T15:08:51;94310.88;;;27.30;51.38
10732;BME280;5417;42.686;23.244;2023-06-24T15:11:19;94320.41;;;27.26;50.69
10732;BME280;5417;42.686;23.244;2023-06-24T15:13:46;94327.84;;;27.24;50.42
10732;BME280;5417;42.686;23.244;2023-06-24T15:16:13;94327.59;;;27.25;49.81
10732;BME280;5417;42.686;23.244;2023-06-24T15:18:44;94332.47;;;27.17;49.70
10732;BME280;5417;42.686;23.244;2023-06-24T15:25:10;94304.22;;;27.09;48.32
10732;BME280;5417;42.686;23.244;2023-06-24T15:27:53;94292.94;;;27.07;48.93
10732;BME280;5417;42.686;23.244;2023-06-24T15:30:20;94293.75;;;27.08;49.64
10732;BME280;5417;42.686;23.244;2023-06-24T15:32:46;94291.44;;;27.11;50.90
10732;BME280;5417;42.686;23.244;2023-06-24T15:35:13;94281.81;;;27.10;50.24
10732;BME280;5417;42.686;23.244;2023-06-24T15:37:40;94271.66;;;27.00;48.81